Time;durP1;ratioP1;P1;durP2;ratioP2;P2;SDS_P1;SDS_P2;PMS_P1;PMS_P2;Temp;Humidity;BMP_temperature;BMP_pressure;BME280_temperature;BME280_humidity;BME280_pressure;Samples;Min_cycle;Max_cycle;Signal;HPM_P1;HPM_P2
2022/08/31 00:07:30;;;;;;;9.30;3.67;;;21.30;62.30;;;;;;20669651;28;20231;-65
2022/08/31 00:17:32;;;;;;;6.47;3.50;;;21.30;62.50;;;;;;20668976;28;20241;-65
2022/08/31 00:27:34;;;;;;;10.60;4.07;;;21.20;63.20;;;;;;20668227;28;20217;-66
2022/08/31 00:37:36;;;;;;;9.13;3.73;;;21.10;64.00;;;;;;20667804;28;20306;-65
2022/08/31 00:47:37;;;;;;;6.30;4.03;;;21.20;64.50;;;;;;20666607;28;20204;-65
2022/08/31 00:57:43;;;;;;;6.67;3.77;;;21.00;65.40;;;;;;20666513;28;20236;-65
2022/08/31 01:07:47;;;;;;;7.83;3.87;;;20.90;65.70;;;;;;20666400;28;20578;-65
2022/08/31 01:17:52;;;;;;;6.83;3.70;;;20.90;66.20;;;;;;20666209;28;20253;-65
2022/08/31 01:27:55;;;;;;;4.77;3.80;;;20.70;66.80;;;;;;20665491;28;20215;-65
2022/08/31 01:37:57;;;;;;;6.30;4.00;;;20.70;67.10;;;;;;20665216;28;20597;-65
2022/08/31 01:48:01;;;;;;;6.67;4.73;;;20.70;67.60;;;;;;20664869;28;20549;-64
2022/08/31 01:58:04;;;;;;;5.97;4.27;;;20.70;68.70;;;;;;20667363;28;20708;-66
2022/08/31 02:08:08;;;;;;;7.07;4.20;;;20.70;69.20;;;;;;20678771;28;20220;-64
2022/08/31 02:18:10;;;;;;;11.83;4.50;;;20.70;69.00;;;;;;20678355;28;20247;-65
2022/08/31 02:28:12;;;;;;;7.30;4.30;;;20.70;69.50;;;;;;20677489;28;20579;-66
2022/08/31 02:38:14;;;;;;;7.67;4.67;;;20.70;70.10;;;;;;20676747;28;20444;-66
2022/08/31 02:48:16;;;;;;;7.67;4.40;;;20.60;70.80;;;;;;20676176;28;20213;-67
2022/08/31 02:58:18;;;;;;;9.50;5.33;;;20.60;71.90;;;;;;20675348;28;20262;-65
2022/08/31 03:08:24;;;;;;;6.33;4.60;;;20.60;71.60;;;;;;20673727;28;20214;-65
2022/08/31 03:18:27;;;;;;;6.37;4.40;;;20.50;72.00;;;;;;20671218;28;20303;-64
2022/08/31 03:28:29;;;;;;;4.93;3.97;;;20.50;72.30;;;;;;20651327;28;20213;-65
2022/08/31 03:38:31;;;;;;;6.97;4.90;;;20.60;72.70;;;;;;20671606;28;20735;-65
2022/08/31 03:48:33;;;;;;;5.77;4.97;;;20.60;72.90;;;;;;20671185;28;20213;-67
2022/08/31 03:58:36;;;;;;;5.00;4.50;;;20.60;73.20;;;;;;20670115;28;20696;-65
2022/08/31 04:08:38;;;;;;;7.30;5.30;;;20.50;73.40;;;;;;20669378;28;20213;-67
2022/08/31 04:18:42;;;;;;;6.27;4.70;;;20.40;73.80;;;;;;20668670;28;20248;-65
2022/08/31 04:28:44;;;;;;;7.50;4.60;;;20.40;74.20;;;;;;20667789;28;20263;-66
2022/08/31 04:38:47;;;;;;;5.90;4.80;;;20.40;74.50;;;;;;20667287;28;20244;-65
2022/08/31 04:48:49;;;;;;;6.43;4.67;;;20.40;74.80;;;;;;20667076;28;20218;-66
2022/08/31 04:58:57;;;;;;;8.47;4.63;;;20.40;74.80;;;;;;20666359;28;20255;-66
2022/08/31 05:09:02;;;;;;;6.47;4.33;;;20.50;75.00;;;;;;20666399;28;20219;-66
2022/08/31 05:19:04;;;;;;;8.60;4.77;;;20.50;75.20;;;;;;20665676;28;20244;-66
2022/08/31 05:29:08;;;;;;;8.60;4.10;;;20.40;75.30;;;;;;20665493;28;20208;-65
2022/08/31 05:39:12;;;;;;;7.20;4.30;;;20.50;75.60;;;;;;20677761;28;20236;-66
2022/08/31 05:49:14;;;;;;;13.70;4.90;;;20.50;75.60;;;;;;20680089;28;20250;-65
2022/08/31 05:59:16;;;;;;;13.47;4.27;;;20.50;75.60;;;;;;20678992;28;20243;-65
2022/08/31 06:09:18;;;;;;;13.60;4.67;;;20.50;75.80;;;;;;20676315;28;20209;-65
2022/08/31 06:19:20;;;;;;;8.60;4.30;;;20.50;75.90;;;;;;20677791;28;20250;-65
2022/08/31 06:29:22;;;;;;;13.33;5.53;;;20.60;75.70;;;;;;20676179;28;20223;-66
2022/08/31 06:39:24;;;;;;;8.83;4.70;;;20.70;75.80;;;;;;20674546;28;20237;-66
2022/08/31 06:49:25;;;;;;;8.30;4.70;;;20.80;75.80;;;;;;20673082;28;20210;-67
2022/08/31 06:59:27;;;;;;;10.40;4.50;;;21.00;75.40;;;;;;20674298;28;20248;-67
2022/08/31 07:09:30;;;;;;;9.40;4.27;;;21.10;75.00;;;;;;20673395;28;20221;-65
2022/08/31 07:19:33;;;;;;;10.23;4.60;;;21.30;74.70;;;;;;20672071;28;20582;-67
2022/08/31 07:29:39;;;;;;;12.93;4.77;;;21.30;74.10;;;;;;20670869;28;20562;-67
2022/08/31 07:50:08;;;;;;;7.27;3.63;;;21.80;72.90;;;;;;20667587;28;20572;-67
2022/08/31 08:00:13;;;;;;;5.53;4.10;;;22.00;72.00;;;;;;20668445;28;20240;-66
2022/08/31 08:10:18;;;;;;;6.07;3.63;;;22.20;71.50;;;;;;20667918;28;20209;-66
2022/08/31 08:20:20;;;;;;;4.70;3.87;;;22.30;70.80;;;;;;20666479;28;20248;-66
2022/08/31 08:30:35;;;;;;;4.37;3.30;;;22.40;69.70;;;;;;20667258;28;20580;-67
2022/08/31 08:40:41;;;;;;;8.03;3.20;;;22.60;68.60;;;;;;20666241;28;20244;-67
2022/08/31 08:50:43;;;;;;;7.83;4.50;;;22.80;67.60;;;;;;20665485;28;20214;-66
2022/08/31 09:00:51;;;;;;;4.23;3.40;;;22.90;66.60;;;;;;20665901;28;20337;-65
2022/08/31 09:11:22;;;;;;;3.93;3.53;;;23.00;65.80;;;;;;20674566;28;20667;-65
2022/08/31 09:21:33;;;;;;;4.77;3.37;;;23.10;65.30;;;;;;20637898;28;20316;-65
2022/08/31 09:31:38;;;;;;;4.60;3.43;;;23.20;64.60;;;;;;20681060;28;20700;-66
2022/08/31 09:41:40;;;;;;;14.73;4.10;;;23.40;64.00;;;;;;20680012;28;20284;-66
2022/08/31 09:51:43;;;;;;;10.47;3.43;;;23.50;63.20;;;;;;20679262;28;20297;-66
2022/08/31 10:01:45;;;;;;;4.00;3.47;;;23.60;62.20;;;;;;20678095;28;20241;-66
2022/08/31 10:11:50;;;;;;;4.90;3.70;;;23.60;61.70;;;;;;20677318;28;20238;-65
2022/08/31 10:21:58;;;;;;;7.77;3.00;;;23.70;61.30;;;;;;20676063;28;20245;-65
2022/08/31 10:32:07;;;;;;;5.30;3.10;;;23.90;60.40;;;;;;20676695;28;20742;-67
2022/08/31 10:42:24;;;;;;;5.33;3.47;;;24.10;60.00;;;;;;20675258;28;20246;-66
2022/08/31 10:52:57;;;;;;;7.50;3.00;;;24.30;59.20;;;;;;20673903;28;20234;-66
2022/08/31 11:03:34;;;;;;;11.70;3.10;;;24.20;58.40;;;;;;20673440;28;20245;-67
2022/08/31 11:14:10;;;;;;;3.00;2.70;;;24.50;57.80;;;;;;20672051;28;20230;-66
2022/08/31 11:24:48;;;;;;;3.97;3.50;;;24.70;57.20;;;;;;20672143;28;20241;-70
2022/08/31 11:34:53;;;;;;;7.60;3.80;;;24.70;56.50;;;;;;20670357;28;20607;-67
2022/08/31 11:45:05;;;;;;;14.00;3.67;;;24.70;56.10;;;;;;20670055;28;20686;-67
2022/08/31 11:55:14;;;;;;;4.20;3.00;;;24.70;55.50;;;;;;20667625;28;20296;-61
2022/08/31 12:05:49;;;;;;;5.00;3.20;;;24.70;55.20;;;;;;20665653;28;20326;-65
2022/08/31 12:16:17;;;;;;;3.83;3.40;;;24.90;55.40;;;;;;20666824;28;20240;-64
2022/08/31 12:26:38;;;;;;;7.40;3.70;;;25.10;55.50;;;;;;20666763;28;20284;-67
2022/08/31 12:36:45;;;;;;;7.83;3.20;;;25.30;54.60;;;;;;20665906;28;20214;-68
2022/08/31 12:47:03;;;;;;;3.83;3.10;;;25.20;54.00;;;;;;20664880;28;20241;-68
2022/08/31 12:57:28;;;;;;;3.67;3.37;;;25.20;53.80;;;;;;20665318;28;20209;-67
2022/08/31 13:07:33;;;;;;;4.97;3.40;;;25.00;53.80;;;;;;20665227;28;20218;-67
2022/08/31 13:17:38;;;;;;;4.77;3.47;;;24.90;54.10;;;;;;20664695;28;20328;-67
2022/08/31 13:27:49;;;;;;;7.07;3.80;;;24.80;54.10;;;;;;20664436;28;20659;-68
2022/08/31 13:38:03;;;;;;;6.00;3.53;;;24.80;54.20;;;;;;20663656;28;20632;-68
2022/08/31 13:48:17;;;;;;;4.70;4.10;;;24.80;54.20;;;;;;20664439;28;20218;-66
2022/08/31 13:58:29;;;;;;;10.43;7.10;;;24.90;54.10;;;;;;20672410;28;20234;-65
2022/08/31 14:08:31;;;;;;;5.87;3.43;;;25.10;53.90;;;;;;20677400;28;20220;-73
2022/08/31 14:18:38;;;;;;;3.53;3.23;;;25.30;53.60;;;;;;20676616;28;20355;-66
2022/08/31 14:28:46;;;;;;;3.57;3.27;;;25.20;53.50;;;;;;20676624;28;20298;-65
2022/08/31 14:38:49;;;;;;;12.23;3.10;;;24.90;53.90;;;;;;20658240;28;20234;-69
2022/08/31 14:48:51;;;;;;;5.53;3.43;;;24.70;54.00;;;;;;20674360;28;20718;-71
2022/08/31 14:58:53;;;;;;;8.67;3.70;;;24.60;53.90;;;;;;20674587;28;20245;-80
2022/08/31 15:08:55;;;;;;;3.40;3.10;;;24.50;54.10;;;;;;20656021;28;20229;-74
2022/08/31 15:18:57;;;;;;;5.80;3.40;;;24.90;54.10;;;;;;20673495;28;20248;-73
2022/08/31 15:29:01;;;;;;;7.07;2.87;;;25.20;53.50;;;;;;20673126;28;20205;-73
2022/08/31 15:39:05;;;;;;;5.00;3.17;;;25.10;53.50;;;;;;20672064;28;20592;-73
2022/08/31 15:49:09;;;;;;;4.63;3.20;;;25.10;53.70;;;;;;20671184;28;20209;-70
2022/08/31 15:59:11;;;;;;;6.00;3.00;;;24.90;54.30;;;;;;20670817;28;20245;-71
2022/08/31 16:09:12;;;;;;;9.87;3.10;;;24.60;54.70;;;;;;20669763;28;20726;-70
2022/08/31 16:19:17;;;;;;;6.40;2.80;;;24.40;55.10;;;;;;20668641;28;20246;-78
2022/08/31 16:29:35;;;;;;;9.03;2.93;;;24.20;55.30;;;;;;20668976;28;20569;-73
2022/08/31 16:39:40;;;;;;;3.47;3.10;;;24.10;55.50;;;;;;20667317;28;20321;-75
2022/08/31 16:49:42;;;;;;;6.50;3.00;;;24.00;55.70;;;;;;20667262;28;20641;-74
2022/08/31 16:59:45;;;;;;;6.17;2.53;;;23.90;55.90;;;;;;20667057;28;20459;-78
2022/08/31 17:09:47;;;;;;;4.83;2.90;;;23.70;56.10;;;;;;20666451;28;20210;-77
2022/08/31 17:19:50;;;;;;;3.47;2.60;;;23.60;56.30;;;;;;20665976;28;20273;-78
2022/08/31 17:29:59;;;;;;;3.40;2.60;;;23.50;56.60;;;;;;20670872;28;20241;-78
2022/08/31 17:40:03;;;;;;;4.63;2.80;;;23.40;56.90;;;;;;20679799;28;20229;-74
2022/08/31 17:50:05;;;;;;;5.60;2.47;;;23.20;57.20;;;;;;20642326;28;20265;-74
2022/08/31 18:00:08;;;;;;;7.93;2.53;;;23.10;57.70;;;;;;20603918;28;20229;-75
2022/08/31 18:10:11;;;;;;;3.37;2.87;;;22.90;58.10;;;;;;20666571;28;20230;-77
2022/08/31 18:20:13;;;;;;;4.33;2.30;;;22.80;58.50;;;;;;20658477;28;20360;-78
2022/08/31 18:30:17;;;;;;;3.63;2.50;;;22.60;58.90;;;;;;20674492;28;20241;-77
2022/08/31 18:50:45;;;;;;;6.20;3.60;;;22.40;60.00;;;;;;20673307;28;20718;-75
2022/08/31 19:00:56;;;;;;;4.43;2.70;;;22.30;60.70;;;;;;20597870;28;20474;-79
2022/08/31 19:10:59;;;;;;;4.00;2.70;;;22.60;61.60;;;;;;20671019;28;20252;-77
2022/08/31 19:21:10;;;;;;;5.70;2.93;;;22.20;61.90;;;;;;20674566;28;20241;-72
2022/08/31 19:31:12;;;;;;;5.23;2.63;;;22.10;61.80;;;;;;20673105;28;20220;-78
2022/08/31 19:41:19;;;;;;;10.23;2.40;;;22.10;62.20;;;;;;20671982;28;20292;-78
2022/08/31 19:51:22;;;;;;;4.43;3.90;;;22.00;62.30;;;;;;20670880;28;20246;-72
2022/08/31 20:01:29;;;;;;;6.60;2.60;;;21.80;62.50;;;;;;20670874;28;20740;-73
2022/08/31 20:11:33;;;;;;;3.97;3.40;;;21.70;62.70;;;;;;20669685;28;20233;-72
2022/08/31 20:21:39;;;;;;;4.23;2.77;;;21.60;63.10;;;;;;20669071;28;20295;-73
2022/08/31 20:31:44;;;;;;;5.50;2.37;;;21.50;63.30;;;;;;20668728;28;20245;-73
2022/08/31 20:41:49;;;;;;;2.37;2.17;;;21.40;63.50;;;;;;20667739;28;20241;-75
2022/08/31 20:51:53;;;;;;;7.47;2.27;;;21.30;63.90;;;;;;20667497;28;20643;-77
2022/08/31 21:01:58;;;;;;;5.30;2.10;;;21.20;64.20;;;;;;20666072;28;20280;-72
2022/08/31 21:12:00;;;;;;;3.63;2.27;;;21.20;64.40;;;;;;20666284;28;20647;-71
2022/08/31 21:22:05;;;;;;;5.37;2.20;;;21.20;64.70;;;;;;20664695;28;20739;-73
2022/08/31 21:32:09;;;;;;;5.63;2.20;;;21.20;64.90;;;;;;20667470;28;20216;-75
2022/08/31 21:42:10;;;;;;;4.23;1.97;;;21.10;65.10;;;;;;20668242;28;20237;-74
2022/08/31 21:52:15;;;;;;;2.30;1.90;;;21.10;65.30;;;;;;20667187;28;20228;-75
2022/08/31 22:02:16;;;;;;;4.23;2.00;;;21.00;65.60;;;;;;20666626;28;20324;-74
2022/08/31 22:12:18;;;;;;;6.57;2.27;;;20.90;65.80;;;;;;20667197;28;20333;-74
2022/08/31 22:22:20;;;;;;;3.67;2.17;;;20.80;66.70;;;;;;20678238;28;20259;-74
2022/08/31 22:32:23;;;;;;;2.00;1.80;;;20.70;66.20;;;;;;20676572;28;20280;-74
2022/08/31 22:42:24;;;;;;;4.53;2.10;;;20.70;66.50;;;;;;20677500;28;20241;-76
2022/08/31 22:52:26;;;;;;;7.37;2.47;;;20.60;66.80;;;;;;20676228;28;20221;-74
2022/08/31 23:02:29;;;;;;;2.60;2.07;;;20.40;67.10;;;;;;20675711;28;20232;-76
2022/08/31 23:12:31;;;;;;;3.40;2.10;;;20.30;67.40;;;;;;20675179;28;20239;-74
2022/08/31 23:22:33;;;;;;;6.47;2.10;;;20.20;67.80;;;;;;20674227;28;20247;-78
2022/08/31 23:32:34;;;;;;;7.57;2.20;;;20.10;68.20;;;;;;20672521;28;20208;-75
2022/08/31 23:42:39;;;;;;;2.40;2.00;;;20.10;68.40;;;;;;20672593;28;20242;-73
2022/08/31 23:52:42;;;;;;;9.63;3.30;;;20.00;68.70;;;;;;20671735;28;20571;-75
